Time;durP1;ratioP1;P1;durP2;ratioP2;P2;SDS_P1;SDS_P2;PMS_P1;PMS_P2;Temp;Humidity;BMP_temperature;BMP_pressure;BME280_temperature;BME280_humidity;BME280_pressure;Samples;Min_cycle;Max_cycle;Signal;HPM_P1;HPM_P2
2022/03/22 00:02:23;;;;;;;9.07;6.05;;;;;;;16.02;45.95;100206.72;4927615;29;20028;-87
2022/03/22 00:04:49;;;;;;;9.07;5.70;;;;;;;16.01;45.96;100218.19;4946310;29;20027;-88
2022/03/22 00:07:15;;;;;;;8.15;5.88;;;;;;;16.02;45.77;100208.53;4930195;29;20444;-88
2022/03/22 00:09:40;;;;;;;10.45;6.15;;;;;;;16.01;45.89;100212.91;4946033;29;20074;-88
2022/03/22 00:12:07;;;;;;;10.88;6.10;;;;;;;16.02;46.07;100208.53;4928446;29;20131;-88
2022/03/22 00:14:33;;;;;;;10.10;5.93;;;;;;;15.99;45.78;100209.47;4930327;29;20034;-88
2022/03/22 00:16:59;;;;;;;10.50;6.15;;;;;;;16.01;46.00;100210.28;4945209;29;20027;-87
2022/03/22 00:19:25;;;;;;;8.35;5.47;;;;;;;15.97;46.00;100203.38;4924946;29;20032;-87
2022/03/22 00:21:51;;;;;;;9.55;6.38;;;;;;;15.97;45.69;100213.88;4924709;29;20031;-87
2022/03/22 00:24:16;;;;;;;9.02;5.88;;;;;;;15.96;45.97;100205.16;4940505;29;20027;-87
2022/03/22 00:26:42;;;;;;;9.57;5.90;;;;;;;15.99;45.86;100213.84;4925167;29;20047;-87
2022/03/22 00:29:07;;;;;;;10.88;6.70;;;;;;;16.01;45.93;100215.53;4925410;29;20036;-87
2022/03/22 00:31:33;;;;;;;9.55;6.22;;;;;;;16.01;45.84;100206.78;4942660;29;20034;-87
2022/03/22 00:33:59;;;;;;;8.90;5.68;;;;;;;15.97;45.82;100211.25;4943068;29;20122;-88
2022/03/22 00:36:25;;;;;;;12.77;5.97;;;;;;;15.97;46.05;100198.09;4924030;29;20063;-88
2022/03/22 00:38:51;;;;;;;9.13;6.45;;;;;;;15.96;45.88;100194.63;4922966;29;20095;-88
2022/03/22 00:41:17;;;;;;;9.63;6.40;;;;;;;15.98;45.75;100202.44;4922623;29;20036;-87
2022/03/22 00:43:46;;;;;;;9.35;5.60;;;;;;;15.97;45.84;100192.84;4937132;29;20032;-87
2022/03/22 00:46:12;;;;;;;11.98;6.32;;;;;;;15.96;46.02;100199.88;4922395;29;20032;-87
2022/03/22 00:48:38;;;;;;;10.15;6.22;;;;;;;15.96;45.87;100193.75;4921298;29;20047;-88
2022/03/22 00:51:04;;;;;;;10.02;6.60;;;;;;;15.96;45.83;100191.09;4921297;29;20055;-87
2022/03/22 00:53:30;;;;;;;9.35;6.05;;;;;;;15.94;45.74;100188.50;4920916;29;20032;-87
2022/03/22 00:55:56;;;;;;;8.52;5.30;;;;;;;15.93;45.96;100185.94;4921275;29;20027;-87
2022/03/22 00:58:21;;;;;;;10.32;6.18;;;;;;;15.90;46.12;100186.00;4921292;29;20407;-88
2022/03/22 01:00:48;;;;;;;8.35;5.60;;;;;;;15.93;45.94;100188.59;4921217;29;20039;-87
2022/03/22 01:03:14;;;;;;;8.68;5.15;;;;;;;15.93;45.93;100172.78;4922373;29;20070;-87
2022/03/22 01:05:40;;;;;;;8.85;6.20;;;;;;;15.92;45.73;100171.00;4937378;29;20431;-87
2022/03/22 01:08:08;;;;;;;7.03;5.38;;;;;;;15.93;45.98;100173.63;4937510;29;20470;-88
2022/03/22 01:10:36;;;;;;;8.63;5.90;;;;;;;15.92;45.57;100169.28;4921971;29;20055;-88
2022/03/22 01:13:03;;;;;;;10.13;5.63;;;;;;;15.94;45.57;100169.25;4920786;29;20459;-88
2022/03/22 01:15:34;;;;;;;10.57;6.20;;;;;;;15.91;45.86;100158.75;4920877;29;20114;-88
2022/03/22 01:18:04;;;;;;;9.18;5.57;;;;;;;15.89;45.85;100160.59;4920959;29;20119;-87
2022/03/22 01:20:31;;;;;;;8.45;5.95;;;;;;;15.89;45.65;100145.63;4920736;29;20028;-87
2022/03/22 01:22:57;;;;;;;9.63;5.45;;;;;;;15.88;45.85;100143.91;4920397;29;20095;-88
2022/03/22 01:25:27;;;;;;;11.18;6.03;;;;;;;15.87;45.66;100146.63;4922114;29;20042;-88
2022/03/22 01:27:54;;;;;;;10.10;5.97;;;;;;;15.86;45.52;100150.13;4920616;29;20122;-87
2022/03/22 01:30:22;;;;;;;8.23;5.93;;;;;;;15.83;45.77;100141.41;4921989;29;20087;-89
2022/03/22 01:32:50;;;;;;;8.27;5.72;;;;;;;15.83;45.61;100149.31;4920485;29;20046;-87
2022/03/22 01:35:17;;;;;;;8.27;5.57;;;;;;;15.83;45.91;100146.69;4920161;29;20066;-88
2022/03/22 01:37:44;;;;;;;8.60;5.35;;;;;;;15.82;45.70;100129.19;4920435;29;20182;-88
2022/03/22 01:40:11;;;;;;;8.27;5.50;;;;;;;15.79;45.70;100134.50;4920040;29;20031;-88
2022/03/22 01:42:38;;;;;;;10.55;5.88;;;;;;;15.79;45.65;100131.88;4919261;29;20038;-88
2022/03/22 01:45:07;;;;;;;8.90;6.20;;;;;;;15.77;45.89;100124.94;4920178;29;20028;-87
2022/03/22 01:47:35;;;;;;;9.52;6.28;;;;;;;15.79;45.58;100118.72;4919062;29;20024;-87
2022/03/22 01:50:01;;;;;;;8.73;6.00;;;;;;;15.78;45.63;100118.78;4919078;29;20533;-87
2022/03/22 01:52:26;;;;;;;9.40;5.82;;;;;;;15.74;45.58;100117.16;4919501;29;20024;-88
2022/03/22 01:54:55;;;;;;;10.85;6.35;;;;;;;15.76;45.53;100113.56;4920166;29;20390;-87
2022/03/22 01:57:23;;;;;;;11.13;6.45;;;;;;;15.76;45.46;100113.56;4920126;29;20028;-88
2022/03/22 01:59:49;;;;;;;9.30;6.22;;;;;;;15.77;45.64;100117.91;4921257;29;20055;-87
2022/03/22 02:07:45;;;;;;;12.63;6.15;;;;;;;15.75;45.21;100105.72;4921444;29;20374;-88
2022/03/22 02:10:12;;;;;;;9.25;5.97;;;;;;;15.72;45.28;100096.13;4922425;29;20107;-87
2022/03/22 02:12:38;;;;;;;8.02;5.28;;;;;;;15.74;45.03;100101.34;4936807;29;20039;-87
2022/03/22 02:15:05;;;;;;;8.82;5.68;;;;;;;15.76;45.28;100103.03;4936882;29;20087;-88
2022/03/22 02:17:31;;;;;;;8.63;4.90;;;;;;;15.76;45.04;100092.50;4921758;29;20028;-87
2022/03/22 02:19:58;;;;;;;8.77;5.63;;;;;;;15.75;44.96;100101.31;4920592;29;20044;-86
2022/03/22 02:22:44;;;;;;;9.50;5.57;;;;;;;15.74;44.90;100096.09;4920733;29;20106;-87
2022/03/22 02:25:15;;;;;;;7.60;5.20;;;;;;;15.76;44.94;100096.91;4920436;29;20047;-87
2022/03/22 02:27:45;;;;;;;8.38;5.35;;;;;;;15.77;44.68;100094.22;4920610;29;20027;-88
2022/03/22 02:30:15;;;;;;;8.50;5.35;;;;;;;15.77;44.94;100078.44;4921590;29;20032;-87
2022/03/22 02:32:51;;;;;;;8.02;5.30;;;;;;;15.77;44.88;100093.34;4921711;29;20366;-86
2022/03/22 02:35:18;;;;;;;8.50;5.30;;;;;;;15.76;45.14;100082.00;4921149;29;20055;-87
2022/03/22 02:37:44;;;;;;;8.52;6.00;;;;;;;15.77;44.97;100086.34;4922194;29;20370;-87
2022/03/22 02:40:12;;;;;;;7.70;5.30;;;;;;;15.78;45.00;100081.94;4922098;29;20024;-87
2022/03/22 02:42:43;;;;;;;8.85;5.68;;;;;;;15.78;45.10;100084.59;4922080;29;20056;-87
2022/03/22 02:45:11;;;;;;;9.77;6.40;;;;;;;15.77;45.30;100070.56;4922289;29;20028;-87
2022/03/22 02:47:39;;;;;;;8.13;5.60;;;;;;;15.77;45.43;100073.19;4937071;29;20190;-88
2022/03/22 02:50:06;;;;;;;9.95;6.35;;;;;;;15.79;45.43;100070.50;4919468;29;20024;-87
2022/03/22 02:52:33;;;;;;;7.93;6.05;;;;;;;15.79;45.09;100059.97;4919980;29;20028;-87
2022/03/22 02:54:58;;;;;;;8.00;5.72;;;;;;;15.82;45.40;100065.13;4934482;29;20032;-87
2022/03/22 02:57:24;;;;;;;9.25;5.65;;;;;;;15.80;45.41;100062.56;4917909;29;20036;-88
2022/03/22 02:59:49;;;;;;;8.60;6.30;;;;;;;15.83;45.24;100066.84;4933557;29;20083;-88
2022/03/22 03:02:15;;;;;;;9.88;6.10;;;;;;;15.83;45.46;100058.97;4917742;29;20091;-87
2022/03/22 03:04:40;;;;;;;8.50;5.82;;;;;;;15.83;45.51;100058.97;4918710;29;20024;-88
2022/03/22 03:07:06;;;;;;;10.80;6.80;;;;;;;15.83;45.48;100045.81;4917634;29;20044;-87
2022/03/22 03:09:32;;;;;;;8.95;6.10;;;;;;;15.84;45.34;100055.44;4918637;29;20038;-88
2022/03/22 03:11:57;;;;;;;9.57;5.85;;;;;;;15.87;45.24;100062.41;4933658;29;20036;-87
2022/03/22 03:14:41;;;;;;;8.38;5.65;;;;;;;15.88;45.31;100058.84;4934667;29;20035;-87
2022/03/22 03:17:12;;;;;;;8.60;6.55;;;;;;;15.84;45.60;100058.94;4933255;29;20123;-88
2022/03/22 03:19:38;;;;;;;9.25;6.10;;;;;;;15.83;45.75;100065.09;4917757;29;20115;-88
2022/03/22 03:22:04;;;;;;;9.20;6.32;;;;;;;15.80;45.71;100054.66;4918433;29;20121;-87
2022/03/22 03:24:31;;;;;;;8.63;5.97;;;;;;;15.78;45.66;100056.47;4919370;29;20035;-87
2022/03/22 03:26:58;;;;;;;9.63;6.18;;;;;;;15.78;45.68;100053.84;4918358;29;20032;-88
2022/03/22 03:29:24;;;;;;;9.45;6.45;;;;;;;15.83;45.99;100067.72;4933924;29;20024;-87
2022/03/22 03:31:50;;;;;;;8.88;6.03;;;;;;;15.81;45.77;100058.16;4920734;29;20028;-86
2022/03/22 03:34:17;;;;;;;8.25;6.03;;;;;;;15.82;45.74;100059.88;4921871;29;20038;-86
2022/03/22 03:36:42;;;;;;;8.43;5.88;;;;;;;15.84;45.77;100056.28;4921749;29;20048;-87
2022/03/22 03:39:09;;;;;;;8.07;5.85;;;;;;;15.83;45.79;100054.56;4921613;29;20050;-88
2022/03/22 03:41:53;;;;;;;9.23;5.78;;;;;;;15.84;45.70;100052.81;4921716;29;20175;-87
2022/03/22 03:47:05;;;;;;;8.43;5.80;;;;;;;15.82;45.96;100059.88;4924591;29;20054;-88
2022/03/22 03:49:34;;;;;;;9.70;6.28;;;;;;;15.82;45.89;100047.59;4921999;29;20533;-88
2022/03/22 03:52:00;;;;;;;10.40;6.10;;;;;;;15.80;45.80;100074.88;4921898;29;20036;-88
2022/03/22 03:54:26;;;;;;;8.13;5.95;;;;;;;15.82;45.99;100066.00;4921796;29;20060;-88
2022/03/22 03:56:52;;;;;;;10.13;6.55;;;;;;;15.82;45.75;100066.00;4922011;29;20028;-87
2022/03/22 03:59:17;;;;;;;8.90;6.00;;;;;;;15.82;45.82;100071.28;4937468;29;20032;-88
2022/03/22 04:01:44;;;;;;;9.30;5.97;;;;;;;15.81;45.67;100064.28;4922429;29;20043;-87
2022/03/22 04:04:10;;;;;;;9.10;6.50;;;;;;;15.81;45.96;100080.09;4937126;29;20173;-87
2022/03/22 04:06:35;;;;;;;8.45;6.30;;;;;;;15.81;45.77;100077.47;4922201;29;20485;-87
2022/03/22 04:09:01;;;;;;;9.40;6.50;;;;;;;15.82;46.17;100067.78;4921095;29;20020;-87
2022/03/22 04:11:27;;;;;;;9.10;6.38;;;;;;;15.82;46.12;100062.50;4922442;29;20028;-88
2022/03/22 04:13:52;;;;;;;8.68;6.30;;;;;;;15.83;45.96;100066.84;4922085;29;20028;-88
2022/03/22 04:16:18;;;;;;;9.55;6.38;;;;;;;15.83;46.11;100062.47;4923027;29;20031;-89
2022/03/22 04:18:44;;;;;;;8.55;6.28;;;;;;;15.78;46.09;100067.00;4921879;29;20107;-89
2022/03/22 04:21:10;;;;;;;9.75;6.00;;;;;;;15.76;46.14;100071.47;4920730;29;20451;-89
2022/03/22 04:23:36;;;;;;;9.07;6.03;;;;;;;15.79;46.44;100060.81;4936259;29;20123;-88
2022/03/22 04:26:03;;;;;;;9.65;5.75;;;;;;;15.78;46.30;100082.78;4936386;29;20143;-87
2022/03/22 04:33:58;;;;;;;8.65;5.95;;;;;;;15.82;46.39;100081.81;4921060;29;20047;-87
2022/03/22 04:36:24;;;;;;;8.13;5.80;;;;;;;15.80;46.29;100088.88;4920334;29;20059;-88
2022/03/22 04:38:49;;;;;;;7.07;5.55;;;;;;;15.81;46.25;100092.38;4922742;29;20067;-87
2022/03/22 04:41:15;;;;;;;8.95;5.68;;;;;;;15.81;46.37;100095.00;4937242;29;20031;-88
2022/03/22 04:43:41;;;;;;;8.10;5.68;;;;;;;15.83;46.38;100085.28;4922015;29;20063;-87
2022/03/22 04:46:07;;;;;;;6.82;5.45;;;;;;;15.80;46.36;100083.59;4921797;29;20454;-89
2022/03/22 04:48:34;;;;;;;8.98;5.22;;;;;;;15.82;46.20;100081.81;4923191;29;20032;-89
2022/03/22 04:59:13;;;;;;;8.73;5.40;;;;;;;15.76;46.05;100096.91;4924158;29;20385;-88
2022/03/22 05:01:39;;;;;;;10.50;5.90;;;;;;;15.78;45.95;100098.59;4924277;29;20410;-88
2022/03/22 05:04:05;;;;;;;9.48;5.72;;;;;;;15.79;46.06;100086.31;4923231;29;20061;-87
2022/03/22 05:06:35;;;;;;;9.57;5.90;;;;;;;15.80;45.87;100088.88;4924786;29;20071;-88
2022/03/22 05:09:02;;;;;;;8.73;4.78;;;;;;;15.82;46.05;100097.59;4924997;29;20099;-88
2022/03/22 05:11:28;;;;;;;8.05;5.68;;;;;;;15.82;45.97;100096.72;4925771;29;20422;-89
2022/03/22 05:13:56;;;;;;;6.82;4.47;;;;;;;15.80;45.73;100090.66;4925471;29;20176;-88
2022/03/22 05:16:21;;;;;;;8.35;5.03;;;;;;;15.77;45.74;100099.50;4927172;29;20036;-88
2022/03/22 05:18:48;;;;;;;7.28;4.82;;;;;;;15.75;45.79;100088.16;4924557;29;20031;-88
2022/03/22 05:21:13;;;;;;;8.07;5.03;;;;;;;15.74;45.75;100094.31;4920313;29;20450;-88
2022/03/22 05:23:39;;;;;;;9.32;5.30;;;;;;;15.77;45.57;100082.84;4936213;29;20028;-87
2022/03/22 05:26:05;;;;;;;7.07;4.50;;;;;;;15.76;45.92;100087.25;4919886;29;20347;-87
2022/03/22 05:28:32;;;;;;;8.00;4.38;;;;;;;15.76;45.86;100091.63;4920017;29;20087;-87
2022/03/22 05:30:58;;;;;;;8.45;5.40;;;;;;;15.78;45.73;100090.69;4919727;29;20036;-87
2022/03/22 05:33:23;;;;;;;6.45;4.47;;;;;;;15.73;45.72;100086.47;4935429;29;20370;-87
2022/03/22 05:35:49;;;;;;;7.32;4.72;;;;;;;15.73;45.98;100086.47;4919498;29;20058;-87
2022/03/22 05:38:15;;;;;;;6.80;4.85;;;;;;;15.77;45.67;100086.34;4919692;29;20047;-88
2022/03/22 05:40:41;;;;;;;8.60;4.70;;;;;;;15.76;45.87;100076.72;4935190;29;20055;-88
2022/03/22 05:43:07;;;;;;;7.65;4.70;;;;;;;15.79;45.71;100086.31;4919086;29;20039;-88
2022/03/22 05:45:33;;;;;;;7.45;4.72;;;;;;;15.77;45.83;100091.59;4919016;29;20518;-87
2022/03/22 05:48:00;;;;;;;6.50;4.45;;;;;;;15.77;45.95;100082.84;4919868;29;20040;-87
2022/03/22 05:50:27;;;;;;;7.97;4.68;;;;;;;15.79;45.90;100089.78;4920708;29;20028;-88
2022/03/22 05:52:53;;;;;;;7.63;4.80;;;;;;;15.76;45.98;100081.13;4920367;29;20035;-88
2022/03/22 05:55:18;;;;;;;7.93;4.47;;;;;;;15.76;45.85;100082.00;4921967;29;20095;-87
2022/03/22 05:57:44;;;;;;;8.65;5.22;;;;;;;15.76;45.89;100089.88;4918910;29;20040;-87
2022/03/22 06:00:12;;;;;;;6.18;4.00;;;;;;;15.71;45.89;100082.09;4919788;29;20058;-87
2022/03/22 06:02:39;;;;;;;7.22;4.28;;;;;;;15.68;45.87;100083.97;4919828;29;20044;-87
2022/03/22 06:05:08;;;;;;;6.80;4.68;;;;;;;15.70;45.77;100082.16;4934524;29;20374;-86
2022/03/22 06:07:38;;;;;;;8.30;4.50;;;;;;;15.71;45.76;100094.41;4918694;29;20038;-87
2022/03/22 06:10:06;;;;;;;6.75;4.65;;;;;;;15.71;45.91;100089.16;4918744;29;20455;-88
2022/03/22 06:12:40;;;;;;;6.85;4.63;;;;;;;15.72;46.10;100085.59;4920104;29;20055;-89
2022/03/22 06:15:16;;;;;;;8.27;4.65;;;;;;;15.68;45.91;100089.22;4918947;29;20481;-88
2022/03/22 06:17:47;;;;;;;8.57;4.53;;;;;;;15.71;45.89;100095.25;4918734;29;20039;-88
2022/03/22 06:20:19;;;;;;;8.15;4.82;;;;;;;15.70;45.98;100090.06;4918826;29;20038;-88
2022/03/22 06:22:48;;;;;;;7.15;4.30;;;;;;;15.69;45.91;100097.06;4919677;29;20040;-86
2022/03/22 06:25:14;;;;;;;7.80;4.72;;;;;;;15.69;45.97;100101.50;4934453;29;20032;-87
2022/03/22 06:27:41;;;;;;;7.95;4.63;;;;;;;15.70;45.87;100103.22;4918684;29;20042;-88
2022/03/22 06:30:09;;;;;;;7.95;4.57;;;;;;;15.71;45.98;100104.94;4920784;29;20122;-90
2022/03/22 06:32:42;;;;;;;8.43;4.72;;;;;;;15.67;46.10;100103.28;4921676;29;20036;-89
2022/03/22 06:35:10;;;;;;;8.93;4.32;;;;;;;15.68;46.21;100099.75;4922567;29;20139;-89
2022/03/22 06:37:37;;;;;;;8.13;4.07;;;;;;;15.68;46.13;100105.00;4920400;29;20027;-88
2022/03/22 06:40:05;;;;;;;7.20;4.15;;;;;;;15.66;46.08;100106.84;4920822;29;20031;-89
2022/03/22 06:42:31;;;;;;;7.40;4.63;;;;;;;15.66;46.08;100101.56;4923646;29;20115;-88
2022/03/22 06:44:56;;;;;;;7.43;4.45;;;;;;;15.69;46.14;100109.38;4918657;29;20099;-88
2022/03/22 06:47:23;;;;;;;8.27;4.43;;;;;;;15.71;46.18;100110.19;4935826;29;20047;-90
2022/03/22 06:49:49;;;;;;;8.88;4.85;;;;;;;15.73;46.12;100113.63;4934195;29;20178;-88
2022/03/22 06:52:14;;;;;;;6.78;4.18;;;;;;;15.70;45.99;100111.94;4935861;29;20024;-89
2022/03/22 06:54:40;;;;;;;7.05;4.45;;;;;;;15.72;46.00;100122.44;4920378;29;20489;-90
2022/03/22 06:57:06;;;;;;;6.95;4.45;;;;;;;15.72;45.92;100101.41;4934623;29;20074;-88
2022/03/22 06:59:32;;;;;;;8.85;4.32;;;;;;;15.68;46.17;100107.63;4934949;29;20055;-90
2022/03/22 07:01:58;;;;;;;8.02;4.10;;;;;;;15.70;46.19;100103.22;4920891;29;20099;-90
2022/03/22 07:04:23;;;;;;;7.03;4.20;;;;;;;15.67;46.17;100095.41;4933863;29;20032;-89
2022/03/22 07:06:49;;;;;;;8.70;4.53;;;;;;;15.66;46.07;100120.00;4935244;29;20039;-92
2022/03/22 07:09:14;;;;;;;6.60;4.30;;;;;;;15.68;46.19;100110.28;4936552;29;20127;-90
2022/03/22 07:11:52;;;;;;;8.13;4.35;;;;;;;15.70;46.30;100113.75;4937295;29;20035;-90
2022/03/22 07:14:24;;;;;;;9.05;4.38;;;;;;;15.70;46.30;100109.31;4936537;29;20046;-89
2022/03/22 07:16:50;;;;;;;6.07;4.20;;;;;;;15.74;46.09;100104.84;4938722;29;20032;-90
2022/03/22 07:19:17;;;;;;;6.38;3.92;;;;;;;15.71;46.40;100125.97;4938831;29;20028;-90
2022/03/22 07:21:44;;;;;;;6.93;4.13;;;;;;;15.71;46.07;100105.78;4931628;29;20133;-90
2022/03/22 07:24:12;;;;;;;6.53;4.15;;;;;;;15.69;46.09;100123.38;4932401;29;20032;-94
2022/03/22 07:26:40;;;;;;;6.18;4.15;;;;;;;15.72;46.18;100111.91;4946861;29;20058;-92
2022/03/22 07:29:07;;;;;;;6.03;4.28;;;;;;;15.70;46.06;100121.63;4928413;29;20047;-91
2022/03/22 07:31:39;;;;;;;6.90;4.15;;;;;;;15.69;46.06;100127.81;4937648;29;20535;-90
2022/03/22 07:34:11;;;;;;;8.68;4.22;;;;;;;15.71;45.89;100137.34;4940298;29;20123;-91
2022/03/22 07:36:39;;;;;;;8.25;4.10;;;;;;;15.73;45.96;100144.38;4945667;29;20052;-91
2022/03/22 07:39:06;;;;;;;7.93;4.63;;;;;;;15.70;46.15;100119.00;4947323;29;20028;-92
2022/03/22 07:41:32;;;;;;;7.32;4.75;;;;;;;15.75;46.12;100137.28;4931077;29;20055;-91
2022/03/22 07:43:57;;;;;;;5.88;3.95;;;;;;;15.72;46.11;100148.75;4944284;29;20031;-92
2022/03/22 07:46:23;;;;;;;9.88;4.45;;;;;;;15.75;46.27;100146.06;4928427;29;20028;-89
2022/03/22 07:48:53;;;;;;;8.35;4.68;;;;;;;15.75;45.98;100148.69;4923217;29;20450;-88
2022/03/22 07:54:03;;;;;;;8.82;4.45;;;;;;;15.78;46.13;100161.75;4938614;29;20042;-89
2022/03/22 07:56:30;;;;;;;8.90;4.57;;;;;;;15.80;45.99;100136.22;4939110;29;20035;-90
2022/03/22 07:58:57;;;;;;;8.27;4.43;;;;;;;15.82;45.88;100171.28;4921747;29;20038;-89
2022/03/22 08:01:24;;;;;;;7.13;4.40;;;;;;;15.83;46.05;100146.69;4937067;29;20122;-90
2022/03/22 08:03:50;;;;;;;7.05;4.10;;;;;;;15.84;45.97;100153.66;4921862;29;20414;-89
2022/03/22 08:06:16;;;;;;;7.13;4.28;;;;;;;15.86;46.08;100139.59;4938604;29;20032;-90
2022/03/22 08:08:44;;;;;;;6.72;4.13;;;;;;;15.88;46.06;100153.59;4921736;29;20361;-90
2022/03/22 08:11:11;;;;;;;7.55;4.47;;;;;;;15.91;46.02;100148.22;4937205;29;20063;-89
2022/03/22 08:13:37;;;;;;;6.53;4.13;;;;;;;15.90;45.84;100151.78;4921863;29;20046;-90
2022/03/22 08:16:06;;;;;;;6.63;4.18;;;;;;;15.92;45.76;100149.94;4921664;29;20114;-90
2022/03/22 08:18:32;;;;;;;7.35;4.30;;;;;;;15.93;45.88;100157.84;4941263;29;20115;-90
2022/03/22 08:20:58;;;;;;;8.82;4.25;;;;;;;15.94;45.56;100137.66;4942858;29;20070;-90
2022/03/22 08:23:24;;;;;;;7.35;4.32;;;;;;;15.95;45.70;100160.44;4925226;29;20347;-90
2022/03/22 08:25:51;;;;;;;7.38;4.53;;;;;;;15.96;45.68;100157.78;4942578;29;20377;-90
2022/03/22 08:28:17;;;;;;;5.45;3.83;;;;;;;15.97;45.60;100169.16;4940848;29;20036;-90
2022/03/22 08:30:44;;;;;;;7.22;4.10;;;;;;;15.98;45.82;100160.34;4925239;29;20413;-91
2022/03/22 08:33:11;;;;;;;6.70;4.18;;;;;;;15.99;45.75;100166.47;4924828;29;20027;-90
2022/03/22 08:35:41;;;;;;;7.25;4.47;;;;;;;15.99;45.72;100161.22;4925010;29;20067;-91
2022/03/22 08:38:08;;;;;;;7.03;4.10;;;;;;;16.00;45.82;100171.69;4925198;29;20067;-90
2022/03/22 08:40:33;;;;;;;6.45;4.13;;;;;;;16.01;45.73;100165.53;4925080;29;20120;-89
2022/03/22 08:42:59;;;;;;;7.82;3.85;;;;;;;16.05;45.70;100161.03;4941852;29;20135;-91
2022/03/22 08:45:27;;;;;;;6.70;3.63;;;;;;;16.02;45.30;100164.63;4941176;29;20450;-90
2022/03/22 08:47:54;;;;;;;7.55;4.05;;;;;;;16.04;45.74;100165.41;4925477;29;20175;-90
2022/03/22 08:50:22;;;;;;;6.43;3.97;;;;;;;16.05;45.49;100156.63;4925717;29;20031;-90
2022/03/22 08:52:49;;;;;;;6.72;3.72;;;;;;;16.06;45.27;100158.34;4926338;29;20028;-89
2022/03/22 08:55:17;;;;;;;7.00;3.53;;;;;;;16.06;45.42;100160.13;4925790;29;20039;-89
2022/03/22 08:57:44;;;;;;;6.85;4.22;;;;;;;16.07;45.37;100157.44;4926449;29;20027;-89
2022/03/22 09:00:12;;;;;;;7.18;4.50;;;;;;;16.08;45.42;100167.06;4940455;29;20031;-89
2022/03/22 09:02:43;;;;;;;6.82;3.92;;;;;;;16.07;45.11;100169.72;4924897;29;20035;-90
2022/03/22 09:07:58;;;;;;;8.20;4.05;;;;;;;16.07;45.06;100173.25;4942293;29;20430;-90
2022/03/22 09:10:31;;;;;;;8.02;4.05;;;;;;;16.09;45.36;100158.25;4924903;29;20043;-90
2022/03/22 09:12:58;;;;;;;6.28;4.47;;;;;;;16.10;45.46;100185.47;4942057;29;20107;-89
2022/03/22 09:15:26;;;;;;;7.10;3.80;;;;;;;16.10;45.48;100170.53;4925287;29;20024;-88
2022/03/22 09:17:52;;;;;;;8.35;4.07;;;;;;;16.13;45.27;100163.44;4925399;29;20149;-90
2022/03/22 09:20:19;;;;;;;6.60;3.90;;;;;;;16.13;45.37;100159.03;4925389;29;20035;-89
2022/03/22 09:22:48;;;;;;;7.28;4.13;;;;;;;16.14;45.14;100165.16;4925235;29;20031;-91
2022/03/22 09:25:16;;;;;;;5.93;3.70;;;;;;;16.15;45.22;100157.22;4925145;29;20031;-90
2022/03/22 09:27:42;;;;;;;6.78;3.78;;;;;;;16.16;45.08;100164.22;4924650;29;20114;-91
2022/03/22 09:30:09;;;;;;;7.35;3.90;;;;;;;16.18;44.95;100193.13;4942351;29;20027;-90
2022/03/22 09:32:36;;;;;;;7.40;4.47;;;;;;;16.18;45.04;100177.34;4926714;29;20110;-91
2022/03/22 09:35:06;;;;;;;6.95;4.10;;;;;;;16.18;44.90;100165.03;4931304;29;20080;-90
2022/03/22 09:37:34;;;;;;;7.50;3.85;;;;;;;16.19;45.18;100179.06;4934302;29;20020;-91
2022/03/22 09:39:59;;;;;;;7.22;4.25;;;;;;;16.23;45.25;100175.44;4929006;29;20042;-91
2022/03/22 09:42:27;;;;;;;9.70;4.88;;;;;;;16.23;45.13;100171.00;4945107;29;20047;-91
2022/03/22 09:44:53;;;;;;;6.40;4.00;;;;;;;16.23;44.94;100185.97;4930984;29;20055;-91
2022/03/22 09:47:19;;;;;;;6.25;3.88;;;;;;;16.26;44.88;100167.44;4927188;29;20036;-89
2022/03/22 09:49:46;;;;;;;6.32;4.00;;;;;;;16.27;45.28;100187.59;4926850;29;20028;-90
2022/03/22 09:52:12;;;;;;;6.20;4.03;;;;;;;16.27;44.90;100182.31;4928993;29;20052;-89
2022/03/22 09:54:39;;;;;;;8.52;4.07;;;;;;;16.29;44.49;100188.41;4934062;29;20035;-91
2022/03/22 09:57:05;;;;;;;7.20;3.97;;;;;;;16.30;44.46;100182.25;4930695;29;20047;-90
2022/03/22 09:59:36;;;;;;;6.15;4.00;;;;;;;16.31;44.56;100177.81;4930140;29;20122;-89
2022/03/22 10:02:03;;;;;;;6.82;4.50;;;;;;;16.32;44.57;100171.66;4931638;29;20039;-89
2022/03/22 10:04:38;;;;;;;7.15;4.22;;;;;;;16.34;44.79;100194.41;4948468;29;20063;-91
2022/03/22 10:07:06;;;;;;;7.90;3.85;;;;;;;16.36;44.98;100192.59;4931356;29;20036;-91
2022/03/22 10:09:39;;;;;;;5.50;3.22;;;;;;;16.37;44.67;100183.78;4931051;29;20039;-91
2022/03/22 10:12:11;;;;;;;6.57;3.42;;;;;;;16.38;44.80;100184.66;4933510;29;20046;-91
2022/03/22 10:14:39;;;;;;;7.38;3.78;;;;;;;16.40;44.30;100189.84;4931547;29;20028;-91
2022/03/22 10:17:20;;;;;;;7.60;3.47;;;;;;;16.43;44.40;100187.13;4931627;29;20067;-91
2022/03/22 10:19:49;;;;;;;7.10;3.88;;;;;;;16.44;44.85;100191.50;4926862;29;20051;-90
2022/03/22 10:22:15;;;;;;;7.38;3.70;;;;;;;16.44;44.62;100179.19;4913325;29;20036;-89
2022/03/22 10:24:49;;;;;;;6.93;3.83;;;;;;;16.44;44.25;100184.47;4928060;29;20116;-90
2022/03/22 10:27:28;;;;;;;6.22;3.70;;;;;;;16.45;44.42;100196.72;4921375;29;20043;-90
2022/03/22 10:29:56;;;;;;;7.60;3.58;;;;;;;16.46;44.06;100198.44;4921607;29;20032;-89
2022/03/22 10:32:37;;;;;;;6.63;3.78;;;;;;;16.47;44.15;100183.50;4922749;29;20127;-90
2022/03/22 10:35:14;;;;;;;6.22;4.25;;;;;;;16.48;44.39;100179.97;4921497;29;20055;-90
2022/03/22 10:37:45;;;;;;;7.90;3.70;;;;;;;16.49;44.70;100176.41;4922677;29;20116;-90
2022/03/22 10:40:28;;;;;;;6.25;3.55;;;;;;;16.49;43.79;100172.03;4921394;29;20458;-90
2022/03/22 10:43:15;;;;;;;7.93;4.47;;;;;;;16.51;44.56;100198.28;4921292;29;20175;-90
2022/03/22 10:45:46;;;;;;;7.22;3.95;;;;;;;16.53;44.71;100180.69;4920908;29;20472;-89
2022/03/22 10:48:17;;;;;;;7.03;3.40;;;;;;;16.55;44.71;100183.28;4921322;29;20028;-90
2022/03/22 10:50:46;;;;;;;7.30;4.15;;;;;;;16.55;44.68;100172.75;4921620;29;20032;-89
2022/03/22 10:53:20;;;;;;;10.85;4.57;;;;;;;16.56;44.29;100172.66;4921833;29;20024;-90
2022/03/22 10:55:47;;;;;;;8.65;4.45;;;;;;;16.57;44.31;100178.81;4922988;29;20028;-89
2022/03/22 10:58:14;;;;;;;7.20;3.80;;;;;;;16.58;44.50;100186.69;4920708;29;20038;-89
2022/03/22 11:00:43;;;;;;;6.93;4.20;;;;;;;16.57;44.52;100187.56;4922664;29;20038;-87
2022/03/22 11:03:10;;;;;;;7.57;4.38;;;;;;;16.59;44.65;100183.13;4921774;29;20024;-88
2022/03/22 11:05:39;;;;;;;7.10;4.30;;;;;;;16.60;44.32;100174.31;4921704;29;20024;-90
2022/03/22 11:08:05;;;;;;;8.85;4.35;;;;;;;16.63;44.03;100147.00;4920450;29;20060;-90
2022/03/22 11:10:31;;;;;;;7.05;3.80;;;;;;;16.64;43.96;100190.88;4920321;29;20032;-91
2022/03/22 11:12:58;;;;;;;7.35;3.75;;;;;;;16.64;43.91;100186.50;4920251;29;20470;-92
2022/03/22 11:15:26;;;;;;;10.43;4.00;;;;;;;16.63;44.08;100179.50;4919055;29;20421;-91
2022/03/22 11:17:55;;;;;;;7.13;3.88;;;;;;;16.67;43.93;100185.53;4919793;29;20060;-90
2022/03/22 11:20:24;;;;;;;8.13;4.13;;;;;;;16.69;44.59;100182.81;4919541;29;20119;-91
2022/03/22 11:22:54;;;;;;;6.93;3.65;;;;;;;16.67;44.18;100175.00;4919806;29;20028;-90
2022/03/22 11:25:28;;;;;;;6.88;4.43;;;;;;;16.68;44.33;100175.84;4919679;29;20028;-88
2022/03/22 11:28:08;;;;;;;7.00;4.10;;;;;;;16.72;44.26;100177.47;4921281;29;20032;-90
2022/03/22 11:30:36;;;;;;;6.10;4.07;;;;;;;16.72;44.32;100188.88;4921090;29;20024;-90
2022/03/22 11:35:50;;;;;;;5.47;3.67;;;;;;;16.74;44.24;100173.00;4932806;29;20553;-90
2022/03/22 11:38:37;;;;;;;7.90;4.25;;;;;;;16.73;44.36;100177.44;4938771;29;20150;-88
2022/03/22 11:43:48;;;;;;;7.97;4.30;;;;;;;16.77;44.35;100175.56;4939403;29;20038;-89
2022/03/22 11:46:14;;;;;;;6.40;4.00;;;;;;;16.78;44.50;100177.28;4923014;29;20060;-90
2022/03/22 11:48:39;;;;;;;5.78;3.78;;;;;;;16.77;44.29;100165.84;4923308;29;20028;-91
2022/03/22 11:51:07;;;;;;;7.10;3.80;;;;;;;16.79;44.45;100165.81;4923518;29;20027;-90
2022/03/22 11:53:46;;;;;;;6.05;3.53;;;;;;;16.80;44.31;100170.16;4942454;29;20380;-90
2022/03/22 11:56:12;;;;;;;8.50;3.92;;;;;;;16.80;44.26;100170.16;4942749;29;20027;-89
2022/03/22 11:58:49;;;;;;;7.18;4.15;;;;;;;16.81;44.47;100158.75;4926700;29;20062;-92
2022/03/22 12:01:17;;;;;;;7.20;4.03;;;;;;;16.83;43.95;100166.56;4926463;29;20023;-88